createdAt,value
2023-03-10T00:00:53.881Z,1.35
2023-03-10T00:03:20.856Z,1.33
2023-03-10T00:05:48.090Z,1.20
2023-03-10T00:08:15.260Z,1.42
2023-03-10T00:10:42.215Z,1.40
2023-03-10T00:13:27.746Z,1.20
2023-03-10T00:15:54.760Z,1.50
2023-03-10T00:18:21.706Z,1.30
2023-03-10T00:20:51.830Z,1.42
2023-03-10T00:23:19.766Z,1.35
2023-03-10T00:25:57.614Z,1.40
2023-03-10T00:28:26.150Z,1.20
2023-03-10T00:31:05.189Z,1.40
2023-03-10T00:33:33.799Z,1.27
2023-03-10T00:36:11.572Z,1.60
2023-03-10T00:38:39.554Z,1.45
2023-03-10T00:41:09.186Z,1.45
2023-03-10T00:43:36.610Z,1.80
2023-03-10T00:46:03.901Z,1.42
2023-03-10T00:48:31.144Z,1.92
2023-03-10T00:50:59.213Z,1.60
2023-03-10T00:53:36.543Z,1.50
2023-03-10T00:56:08.255Z,1.63
2023-03-10T00:58:35.933Z,1.92
2023-03-10T01:01:04.368Z,2.03
2023-03-10T01:03:31.978Z,2.25
2023-03-10T01:05:58.951Z,2.28
2023-03-10T01:08:25.892Z,2.05
2023-03-10T01:10:53.147Z,2.30
2023-03-10T01:13:20.622Z,1.95
2023-03-10T01:16:06.445Z,2.22
2023-03-10T01:18:33.574Z,1.83
2023-03-10T01:21:21.821Z,2.08
2023-03-10T01:23:49.291Z,2.25
2023-03-10T01:26:22.297Z,1.90
2023-03-10T01:28:49.923Z,1.90
2023-03-10T01:31:35.341Z,1.77
2023-03-10T01:34:02.357Z,1.83
2023-03-10T01:36:29.621Z,2.20
2023-03-10T01:38:57.379Z,1.75
2023-03-10T01:41:24.650Z,2.33
2023-03-10T01:43:56.902Z,1.90
2023-03-10T01:46:35.878Z,1.63
2023-03-10T01:49:12.593Z,1.85
2023-03-10T01:51:43.952Z,3.10
2023-03-10T01:54:16.563Z,2.10
2023-03-10T01:56:44.900Z,2.38
2023-03-10T01:59:12.439Z,1.77
2023-03-10T02:01:39.615Z,1.70
2023-03-10T02:04:17.804Z,2.30
2023-03-10T02:06:47.668Z,2.30
2023-03-10T02:09:15.823Z,1.70
2023-03-10T02:11:43.794Z,1.98
2023-03-10T02:14:10.760Z,1.63
2023-03-10T02:16:37.778Z,2.05
2023-03-10T02:19:08.867Z,1.85
2023-03-10T02:21:47.603Z,2.33
2023-03-10T02:24:24.016Z,2.10
2023-03-10T02:27:29.868Z,1.95
2023-03-10T02:30:07.433Z,2.25
2023-03-10T02:32:42.213Z,2.38
2023-03-10T02:35:09.861Z,1.92
2023-03-10T02:37:37.002Z,1.80
2023-03-10T02:40:25.454Z,2.40
2023-03-10T02:43:18.339Z,2.20
2023-03-10T02:45:48.165Z,2.25
2023-03-10T02:48:37.075Z,2.30
2023-03-10T02:51:26.213Z,2.00
2023-03-10T02:53:53.428Z,2.20
2023-03-10T02:56:32.285Z,2.40
2023-03-10T02:59:00.783Z,2.28
2023-03-10T03:01:30.324Z,2.70
2023-03-10T03:04:01.063Z,2.83
2023-03-10T03:06:28.851Z,2.45
2023-03-10T03:08:56.222Z,2.30
2023-03-10T03:11:23.169Z,2.67
2023-03-10T03:13:50.117Z,2.42
2023-03-10T03:16:19.821Z,2.53
2023-03-10T03:18:46.810Z,2.63
2023-03-10T03:21:17.503Z,2.67
2023-03-10T03:23:46.492Z,2.63
2023-03-10T03:26:18.983Z,3.03
2023-03-10T03:28:46.183Z,2.58
2023-03-10T03:31:18.358Z,2.35
2023-03-10T03:33:45.503Z,2.45
2023-03-10T03:36:15.645Z,3.25
2023-03-10T03:38:42.716Z,2.65
2023-03-10T03:41:12.756Z,2.80
2023-03-10T03:43:51.548Z,2.30
2023-03-10T03:46:18.647Z,2.30
2023-03-10T03:49:04.058Z,2.55
2023-03-10T03:51:31.265Z,2.47
2023-03-10T03:54:16.777Z,2.40
2023-03-10T03:56:43.840Z,2.70
2023-03-10T03:59:29.250Z,2.33
2023-03-10T04:01:56.446Z,1.98
2023-03-10T04:04:23.426Z,1.80
2023-03-10T04:06:53.181Z,1.60
2023-03-10T04:09:20.097Z,2.28
2023-03-10T04:12:06.754Z,1.50
2023-03-10T04:14:33.833Z,1.83
2023-03-10T04:17:06.573Z,1.60
2023-03-10T04:19:33.555Z,2.28
2023-03-10T04:22:00.624Z,2.03
2023-03-10T04:24:27.631Z,1.80
2023-03-10T04:26:54.506Z,1.70
2023-03-10T04:29:24.623Z,1.70
2023-03-10T04:32:04.817Z,1.52
2023-03-10T04:34:32.849Z,1.30
2023-03-10T04:36:59.825Z,1.70
2023-03-10T04:39:26.746Z,1.80
2023-03-10T04:41:53.693Z,1.77
2023-03-10T04:44:30.565Z,1.92
2023-03-10T04:46:58.349Z,2.03
2023-03-10T04:49:25.495Z,1.35
2023-03-10T04:51:52.463Z,1.60
2023-03-10T04:54:19.768Z,1.60
2023-03-10T04:56:46.686Z,1.33
2023-03-10T04:59:13.701Z,1.33
2023-03-10T05:01:40.663Z,1.77
2023-03-10T05:04:10.361Z,1.90
2023-03-10T05:06:37.352Z,1.50
2023-03-10T05:09:06.894Z,1.92
2023-03-10T05:11:33.845Z,1.70
2023-03-10T05:14:03.467Z,1.42
2023-03-10T05:16:30.494Z,2.33
2023-03-10T05:19:00.463Z,1.60
2023-03-10T05:21:27.476Z,1.55
2023-03-10T05:23:54.389Z,1.65
2023-03-10T05:26:21.271Z,1.83
2023-03-10T05:28:50.869Z,1.80
2023-03-10T05:31:17.854Z,1.88
2023-03-10T05:33:47.482Z,1.52
2023-03-10T05:36:14.816Z,2.10
2023-03-10T05:38:41.980Z,1.90
2023-03-10T05:41:27.306Z,1.90
2023-03-10T05:43:54.327Z,1.70
2023-03-10T05:46:39.978Z,1.75
2023-03-10T05:49:07.068Z,1.77
2023-03-10T05:51:49.007Z,2.35
2023-03-10T05:54:34.517Z,1.88
2023-03-10T05:57:01.637Z,1.80
2023-03-10T05:59:28.676Z,2.20
2023-03-10T06:02:14.196Z,1.83
2023-03-10T06:04:41.299Z,1.70
2023-03-10T06:07:08.260Z,1.95
2023-03-10T06:09:35.190Z,2.20
2023-03-10T06:12:21.344Z,1.92
2023-03-10T06:14:48.348Z,1.98
2023-03-10T06:17:15.323Z,2.38
2023-03-10T06:19:42.373Z,1.80
2023-03-10T06:22:09.679Z,2.45
2023-03-10T06:24:36.780Z,2.00
2023-03-10T06:27:22.111Z,2.25
2023-03-10T06:29:49.726Z,2.58
2023-03-10T06:32:16.828Z,2.10
2023-03-10T06:34:43.871Z,1.95
2023-03-10T06:37:10.876Z,2.15
2023-03-10T06:39:40.953Z,2.13
2023-03-10T06:42:08.936Z,2.40
2023-03-10T06:44:36.028Z,2.78
2023-03-10T06:47:05.639Z,2.33
2023-03-10T06:49:41.404Z,2.30
2023-03-10T06:52:08.408Z,2.10
2023-03-10T06:54:35.328Z,2.40
2023-03-10T06:57:02.250Z,2.10
2023-03-10T06:59:32.214Z,2.10
2023-03-10T07:01:59.673Z,2.47
2023-03-10T07:04:45.843Z,3.00
2023-03-10T07:07:14.814Z,2.97
2023-03-10T07:09:41.860Z,2.35
2023-03-10T07:12:14.420Z,2.25
2023-03-10T07:14:41.435Z,2.40
2023-03-10T07:17:08.479Z,2.40
2023-03-10T07:19:36.699Z,2.28
2023-03-10T07:22:03.774Z,2.55
2023-03-10T07:24:49.098Z,2.45
2023-03-10T07:27:16.182Z,2.20
2023-03-10T07:29:43.124Z,2.10
2023-03-10T07:32:10.089Z,2.15
2023-03-10T07:34:37.208Z,3.20
2023-03-10T07:37:13.281Z,2.30
2023-03-10T07:39:40.243Z,2.05
2023-03-10T07:42:07.388Z,3.20
2023-03-10T07:44:34.477Z,2.80
2023-03-10T07:47:01.614Z,2.67
2023-03-10T07:49:28.635Z,2.50
2023-03-10T07:51:58.455Z,2.95
2023-03-10T07:54:25.464Z,2.33
2023-03-10T07:56:52.704Z,2.45
2023-03-10T07:59:22.706Z,3.30
2023-03-10T08:01:52.636Z,3.08
2023-03-10T08:04:22.539Z,2.55
2023-03-10T08:06:49.594Z,2.63
2023-03-10T08:09:35.589Z,5.57
2023-03-10T08:12:03.683Z,3.00
2023-03-10T08:14:49.194Z,2.40
2023-03-10T08:17:16.311Z,1.98
2023-03-10T08:19:43.336Z,2.33
2023-03-10T08:22:22.735Z,3.17
2023-03-10T08:24:49.673Z,2.00
2023-03-10T08:27:16.580Z,2.28
2023-03-10T08:29:43.501Z,2.08
2023-03-10T08:32:28.849Z,1.90
2023-03-10T08:34:55.845Z,1.88
2023-03-10T08:37:22.748Z,1.88
2023-03-10T08:39:52.186Z,1.88
2023-03-10T08:42:27.931Z,1.85
2023-03-10T08:44:56.646Z,1.67
2023-03-10T08:47:23.866Z,1.88
2023-03-10T08:49:50.902Z,1.95
2023-03-10T08:52:18.095Z,2.05
2023-03-10T08:54:48.336Z,2.13
2023-03-10T08:57:15.344Z,2.10
2023-03-10T08:59:45.512Z,1.85
2023-03-10T09:02:30.680Z,1.85
2023-03-10T09:04:57.810Z,1.63
2023-03-10T09:07:24.796Z,1.55
2023-03-10T09:09:51.729Z,1.73
2023-03-10T09:12:18.630Z,1.80
2023-03-10T09:15:04.607Z,1.60
2023-03-10T09:17:31.564Z,2.00
2023-03-10T09:19:58.497Z,1.60
2023-03-10T09:22:40.870Z,1.67
2023-03-10T09:25:08.460Z,1.48
2023-03-10T09:27:35.852Z,1.50
2023-03-10T09:30:06.539Z,1.20
2023-03-10T09:32:52.536Z,1.70
2023-03-10T09:35:20.010Z,1.50
2023-03-10T09:37:47.027Z,1.25
2023-03-10T09:40:19.410Z,1.40
2023-03-10T09:42:51.458Z,1.30
2023-03-10T09:45:37.301Z,1.20
2023-03-10T09:48:17.910Z,1.40
2023-03-10T09:51:29.418Z,1.10
2023-03-10T09:54:25.171Z,1.30
2023-03-10T09:57:17.938Z,1.20
2023-03-10T09:59:47.012Z,1.17
2023-03-10T10:02:37.460Z,1.15
2023-03-10T10:05:17.141Z,1.27
2023-03-10T10:07:50.639Z,1.20
2023-03-10T10:10:26.804Z,1.40
2023-03-10T10:12:55.118Z,1.33
2023-03-10T10:15:25.474Z,1.40
2023-03-10T10:18:17.618Z,1.35
2023-03-10T10:21:09.475Z,1.30
2023-03-10T10:23:40.432Z,1.58
2023-03-10T10:26:33.791Z,1.58
2023-03-10T10:29:13.250Z,1.33
2023-03-10T10:31:40.295Z,1.30
2023-03-10T10:34:19.725Z,1.60
2023-03-10T10:36:55.188Z,1.90
2023-03-10T10:39:28.523Z,2.03
2023-03-10T10:42:11.733Z,1.52
2023-03-10T10:45:00.149Z,1.50
2023-03-10T10:47:33.646Z,1.50
2023-03-10T10:50:17.995Z,1.40
2023-03-10T10:52:48.889Z,1.70
2023-03-10T10:55:44.465Z,1.35
2023-03-10T10:58:31.781Z,1.60
2023-03-10T11:01:01.667Z,1.40
2023-03-10T11:03:39.259Z,1.60
2023-03-10T11:06:18.572Z,1.90
2023-03-10T11:08:51.127Z,1.63
2023-03-10T11:11:24.591Z,1.88
2023-03-10T11:14:00.596Z,1.80
2023-03-10T11:16:40.270Z,1.70
2023-03-10T11:19:45.880Z,1.90
2023-03-10T11:22:42.314Z,1.60
2023-03-10T11:25:12.270Z,2.10
2023-03-10T11:28:16.825Z,1.90
2023-03-10T11:30:56.346Z,2.15
2023-03-10T11:33:47.332Z,1.98
2023-03-10T11:36:22.468Z,1.85
2023-03-10T11:39:34.050Z,1.90
2023-03-10T11:42:13.027Z,2.20
2023-03-10T11:45:11.791Z,2.05
2023-03-10T11:48:05.423Z,1.63
2023-03-10T11:50:49.579Z,1.80
2023-03-10T11:53:35.718Z,2.00
2023-03-10T11:56:06.022Z,2.13
2023-03-10T11:58:42.029Z,2.08
2023-03-10T12:01:13.189Z,1.80
2023-03-10T12:03:53.736Z,1.90
2023-03-10T12:06:26.715Z,1.90
2023-03-10T12:08:56.138Z,1.90
2023-03-10T12:11:27.555Z,2.33
2023-03-10T12:14:01.896Z,1.50
2023-03-10T12:16:38.011Z,1.73
2023-03-10T12:19:06.415Z,1.80
2023-03-10T12:21:33.949Z,1.70
2023-03-10T12:24:03.334Z,1.50
2023-03-10T12:27:03.484Z,1.95
2023-03-10T12:29:35.738Z,1.60
2023-03-10T12:32:03.044Z,1.80
2023-03-10T12:34:32.435Z,2.15
2023-03-10T12:37:08.985Z,2.10
2023-03-10T12:39:40.744Z,2.17
2023-03-10T12:42:30.539Z,2.45
2023-03-10T12:45:25.544Z,2.10
2023-03-10T12:48:17.858Z,2.00
2023-03-10T12:50:47.256Z,1.90
2023-03-10T12:53:32.491Z,1.90
2023-03-10T12:56:12.109Z,1.95
2023-03-10T12:58:45.190Z,1.73
2023-03-10T13:01:17.412Z,1.90
2023-03-10T13:04:06.466Z,1.98
2023-03-10T13:06:37.852Z,2.00
2023-03-10T13:09:35.190Z,1.92
2023-03-10T13:12:24.339Z,1.88
2023-03-10T13:14:54.768Z,1.80
2023-03-10T13:17:30.248Z,1.67
2023-03-10T13:20:14.948Z,1.58
2023-03-10T13:23:00.596Z,1.45
2023-03-10T13:25:27.734Z,1.65
2023-03-10T13:27:57.550Z,1.30
2023-03-10T13:30:27.944Z,1.45
2023-03-10T13:33:00.163Z,1.75
2023-03-10T13:35:38.470Z,1.60
2023-03-10T13:38:16.809Z,1.70
2023-03-10T13:40:49.860Z,1.83
2023-03-10T13:43:48.548Z,1.73
2023-03-10T13:46:19.989Z,1.63
2023-03-10T13:48:47.926Z,1.60
2023-03-10T13:51:22.881Z,1.50
2023-03-10T13:53:52.765Z,2.00
2023-03-10T13:56:24.665Z,2.08
2023-03-10T13:58:54.919Z,2.03
2023-03-10T14:01:28.921Z,2.05
2023-03-10T14:04:08.888Z,2.40
2023-03-10T14:06:37.214Z,2.80
2023-03-10T14:09:24.894Z,2.33
2023-03-10T14:11:52.361Z,1.85
2023-03-10T14:14:31.159Z,1.58
2023-03-10T14:17:01.147Z,1.50
2023-03-10T14:19:42.145Z,1.40
2023-03-10T14:22:29.886Z,1.13
2023-03-10T14:24:58.928Z,1.30
2023-03-10T14:27:27.547Z,1.30
2023-03-10T14:29:57.225Z,1.17
2023-03-10T14:32:25.486Z,1.30
2023-03-10T14:34:52.784Z,1.50
2023-03-10T14:37:20.105Z,1.70
2023-03-10T14:39:47.272Z,1.90
2023-03-10T14:42:24.862Z,1.70
2023-03-10T14:44:53.070Z,2.00
2023-03-10T14:47:20.601Z,2.00
2023-03-10T14:49:48.027Z,2.55
2023-03-10T14:52:17.519Z,2.90
2023-03-10T14:54:44.744Z,3.67
2023-03-10T14:57:13.730Z,2.70
2023-03-10T14:59:40.863Z,2.15
2023-03-10T15:02:18.389Z,2.25
2023-03-10T15:04:45.435Z,2.10
2023-03-10T15:07:12.998Z,2.22
2023-03-10T15:09:40.054Z,2.00
2023-03-10T15:12:07.794Z,2.08
2023-03-10T15:14:34.950Z,1.70
2023-03-10T15:17:04.387Z,1.88
2023-03-10T15:19:34.211Z,2.30
2023-03-10T15:22:01.225Z,2.30
2023-03-10T15:24:28.224Z,2.60
2023-03-10T15:26:55.597Z,2.38
2023-03-10T15:29:23.591Z,2.55
2023-03-10T15:31:50.675Z,3.47
2023-03-10T15:34:20.862Z,3.60
2023-03-10T15:36:48.164Z,3.47
2023-03-10T15:39:30.643Z,2.90
2023-03-10T15:41:58.974Z,2.40
2023-03-10T15:44:26.678Z,2.60
2023-03-10T15:47:12.353Z,2.63
2023-03-10T15:49:39.993Z,2.40
2023-03-10T15:52:07.015Z,2.70
2023-03-10T15:54:34.792Z,2.25
2023-03-10T15:57:01.777Z,2.28
2023-03-10T15:59:29.476Z,2.35
2023-03-10T16:01:56.588Z,2.38
2023-03-10T16:04:26.736Z,2.30
2023-03-10T16:06:53.832Z,2.15
2023-03-10T16:09:20.944Z,2.20
2023-03-10T16:11:49.261Z,2.10
2023-03-10T16:14:17.235Z,2.35
2023-03-10T16:16:44.297Z,2.08
2023-03-10T16:19:11.322Z,1.58
2023-03-10T16:21:38.322Z,1.52
2023-03-10T16:24:05.497Z,1.33
2023-03-10T16:26:32.960Z,1.13
2023-03-10T16:29:03.692Z,1.58
2023-03-10T16:31:32.059Z,1.27
2023-03-10T16:34:02.014Z,1.20
2023-03-10T16:36:50.823Z,1.38
2023-03-10T16:39:18.659Z,1.10
2023-03-10T16:41:46.149Z,1.35
2023-03-10T16:44:15.505Z,1.20
2023-03-10T16:46:42.795Z,1.35
2023-03-10T16:49:15.061Z,1.27
2023-03-10T16:51:44.884Z,1.60
2023-03-10T16:54:18.674Z,1.35
2023-03-10T16:56:57.170Z,1.50
2023-03-10T16:59:25.210Z,1.20
2023-03-10T17:01:52.480Z,1.50
2023-03-10T17:04:20.078Z,1.02
2023-03-10T17:06:49.737Z,1.40
2023-03-10T17:09:18.026Z,1.60
2023-03-10T17:11:49.697Z,1.50
2023-03-10T17:14:17.383Z,1.60
2023-03-10T17:17:03.223Z,1.70
2023-03-10T17:19:31.015Z,1.73
2023-03-10T17:21:59.113Z,1.50
2023-03-10T17:24:26.964Z,1.67
2023-03-10T17:27:07.439Z,1.83
2023-03-10T17:29:35.273Z,1.88
2023-03-10T17:32:02.351Z,1.70
2023-03-10T17:34:29.489Z,1.90
2023-03-10T17:36:56.628Z,3.08
2023-03-10T17:39:24.020Z,2.20
2023-03-10T17:41:51.786Z,3.13
2023-03-10T17:44:21.738Z,1.50
2023-03-10T17:46:52.751Z,1.50
2023-03-10T17:49:19.876Z,1.77
2023-03-10T17:51:49.541Z,1.65
2023-03-10T17:54:22.900Z,1.58
2023-03-10T17:56:50.633Z,1.20
2023-03-10T17:59:39.265Z,1.20
2023-03-10T18:02:06.437Z,1.35
2023-03-10T18:04:35.617Z,1.50
2023-03-10T18:07:05.360Z,1.40
2023-03-10T18:09:50.362Z,1.30
2023-03-10T18:12:17.554Z,1.42
2023-03-10T18:15:03.734Z,1.40
2023-03-10T18:17:30.933Z,1.75
2023-03-10T18:19:58.660Z,1.42
2023-03-10T18:22:25.849Z,1.88
2023-03-10T18:24:54.141Z,2.78
2023-03-10T18:27:21.212Z,1.60
2023-03-10T18:29:48.826Z,1.75
2023-03-10T18:32:15.963Z,1.58
2023-03-10T18:34:43.183Z,1.70
2023-03-10T18:37:13.394Z,1.83
2023-03-10T18:40:03.926Z,1.83
2023-03-10T18:42:31.135Z,2.65
2023-03-10T18:45:07.945Z,1.63
2023-03-10T18:47:35.535Z,1.73
2023-03-10T18:50:02.731Z,1.85
2023-03-10T18:52:33.095Z,1.98
2023-03-10T18:55:01.173Z,2.08
2023-03-10T18:57:28.672Z,2.25
2023-03-10T18:59:55.776Z,1.50
2023-03-10T19:02:23.951Z,1.65
2023-03-10T19:04:51.419Z,2.20
2023-03-10T19:07:22.058Z,1.77
2023-03-10T19:09:55.497Z,1.45
2023-03-10T19:12:24.933Z,1.77
2023-03-10T19:14:56.969Z,2.08
2023-03-10T19:17:27.571Z,2.50
2023-03-10T19:19:55.812Z,2.40
2023-03-10T19:22:23.135Z,2.53
2023-03-10T19:24:51.149Z,1.77
2023-03-10T19:27:18.428Z,1.45
2023-03-10T19:29:50.121Z,1.80
2023-03-10T19:32:21.274Z,2.30
2023-03-10T19:34:49.787Z,1.90
2023-03-10T19:37:17.206Z,1.95
2023-03-10T19:39:44.363Z,2.92
2023-03-10T19:42:11.560Z,2.80
2023-03-10T19:44:39.584Z,2.45
2023-03-10T19:47:09.338Z,1.85
2023-03-10T19:49:36.816Z,2.40
2023-03-10T19:52:06.961Z,2.85
2023-03-10T19:54:34.054Z,3.20
2023-03-10T19:57:04.858Z,3.80
2023-03-10T19:59:51.211Z,2.80
2023-03-10T20:02:19.472Z,2.22
2023-03-10T20:04:48.422Z,2.42
2023-03-10T20:07:18.115Z,2.50
2023-03-10T20:10:04.295Z,2.00
2023-03-10T20:12:31.542Z,2.38
2023-03-10T20:15:18.262Z,2.40
2023-03-10T20:17:45.762Z,2.63
2023-03-10T20:20:31.792Z,2.35
2023-03-10T20:22:59.404Z,2.10
2023-03-10T20:25:26.958Z,2.10
2023-03-10T20:27:55.363Z,2.20
2023-03-10T20:30:32.135Z,1.95
2023-03-10T20:33:00.318Z,2.00
2023-03-10T20:35:30.120Z,1.98
2023-03-10T20:37:57.825Z,1.77
2023-03-10T20:40:25.491Z,1.90
2023-03-10T20:43:12.224Z,1.73
2023-03-10T20:45:40.926Z,1.58
2023-03-10T20:48:08.443Z,1.83
2023-03-10T20:50:35.938Z,2.97
2023-03-10T20:53:03.614Z,2.15
2023-03-10T20:55:31.555Z,2.15
2023-03-10T20:58:00.131Z,2.83
2023-03-10T21:00:28.620Z,2.42
2023-03-10T21:02:57.323Z,2.45
2023-03-10T21:05:26.237Z,2.63
2023-03-10T21:07:53.440Z,2.40
2023-03-10T21:10:21.147Z,2.30
2023-03-10T21:12:50.958Z,2.40
2023-03-10T21:15:19.358Z,2.10
2023-03-10T21:17:50.074Z,2.53
2023-03-10T21:20:21.157Z,2.45
2023-03-10T21:22:48.323Z,2.70
2023-03-10T21:25:20.369Z,2.45
2023-03-10T21:27:49.744Z,3.40
2023-03-10T21:30:19.731Z,2.63
2023-03-10T21:32:46.935Z,2.75
2023-03-10T21:35:14.336Z,3.08
2023-03-10T21:37:42.893Z,2.80
2023-03-10T21:40:11.995Z,2.50
2023-03-10T21:42:39.075Z,3.08
2023-03-10T21:45:06.957Z,2.72
2023-03-10T21:47:46.316Z,2.50
2023-03-10T21:50:16.166Z,2.50
2023-03-10T21:52:58.609Z,2.53
2023-03-10T21:55:26.039Z,2.80
2023-03-10T21:57:53.198Z,2.58
2023-03-10T22:00:23.525Z,2.58
2023-03-10T22:02:53.224Z,2.42
2023-03-10T22:05:20.796Z,2.42
2023-03-10T22:08:06.891Z,2.70
2023-03-10T22:10:33.988Z,2.55
2023-03-10T22:13:02.678Z,2.50
2023-03-10T22:15:32.503Z,3.22
2023-03-10T22:18:14.860Z,2.90
2023-03-10T22:20:42.886Z,3.10
2023-03-10T22:23:10.347Z,3.60
2023-03-10T22:25:37.735Z,2.75
2023-03-10T22:28:23.838Z,2.88
2023-03-10T22:30:51.879Z,2.90
2023-03-10T22:33:19.686Z,2.85
2023-03-10T22:35:52.236Z,3.28
2023-03-10T22:38:22.152Z,2.80
2023-03-10T22:40:50.015Z,3.08
2023-03-10T22:43:17.270Z,3.00
2023-03-10T22:45:47.054Z,4.05
2023-03-10T22:48:14.235Z,3.70
2023-03-10T22:50:44.602Z,2.80
2023-03-10T22:53:17.508Z,2.53
2023-03-10T22:55:46.649Z,2.63
2023-03-10T22:58:14.917Z,2.65
2023-03-10T23:00:43.895Z,2.63
2023-03-10T23:03:29.683Z,2.80
2023-03-10T23:06:01.050Z,2.97
2023-03-10T23:08:28.755Z,3.05
2023-03-10T23:10:58.783Z,3.15
2023-03-10T23:13:44.242Z,2.92
2023-03-10T23:16:11.515Z,3.15
2023-03-10T23:18:38.955Z,5.40
2023-03-10T23:21:07.401Z,6.40
2023-03-10T23:23:35.026Z,5.85
2023-03-10T23:26:02.795Z,4.55
2023-03-10T23:28:48.510Z,3.60
2023-03-10T23:31:17.188Z,3.33
2023-03-10T23:33:45.800Z,2.97
2023-03-10T23:36:13.726Z,3.33
2023-03-10T23:38:41.115Z,2.47
2023-03-10T23:41:08.660Z,2.35
2023-03-10T23:43:36.318Z,2.97
2023-03-10T23:46:08.185Z,2.60
2023-03-10T23:48:36.664Z,3.08
2023-03-10T23:51:04.893Z,2.58
2023-03-10T23:53:32.235Z,2.92
2023-03-10T23:56:00.485Z,2.80
2023-03-10T23:58:28.180Z,2.78
